sensor_id;sensor_type;location;lat;lon;timestamp;P1;durP1;ratioP1;P2;durP2;ratioP2
55146;SDS011;41039;49.830;23.988;2024-01-27T00:02:01;4.23;;;3.10;;
55146;SDS011;41039;49.830;23.988;2024-01-27T00:04:26;4.47;;;3.03;;
55146;SDS011;41039;49.830;23.988;2024-01-27T00:06:51;4.33;;;3.40;;
55146;SDS011;41039;49.830;23.988;2024-01-27T00:09:16;3.93;;;3.10;;
55146;SDS011;41039;49.830;23.988;2024-01-27T00:11:41;4.60;;;2.80;;
55146;SDS011;41039;49.830;23.988;2024-01-27T00:14:07;5.60;;;3.10;;
55146;SDS011;41039;49.830;23.988;2024-01-27T00:16:32;4.40;;;3.05;;
55146;SDS011;41039;49.830;23.988;2024-01-27T00:18:57;3.78;;;2.88;;
55146;SDS011;41039;49.830;23.988;2024-01-27T00:21:23;3.50;;;2.80;;
55146;SDS011;41039;49.830;23.988;2024-01-27T00:23:48;5.22;;;3.03;;
55146;SDS011;41039;49.830;23.988;2024-01-27T00:26:13;3.53;;;2.60;;
55146;SDS011;41039;49.830;23.988;2024-01-27T00:28:38;3.78;;;3.08;;
55146;SDS011;41039;49.830;23.988;2024-01-27T00:31:04;4.70;;;3.13;;
55146;SDS011;41039;49.830;23.988;2024-01-27T00:33:29;4.37;;;2.93;;
55146;SDS011;41039;49.830;23.988;2024-01-27T00:35:54;4.97;;;3.20;;
55146;SDS011;41039;49.830;23.988;2024-01-27T00:38:19;4.90;;;2.83;;
55146;SDS011;41039;49.830;23.988;2024-01-27T00:40:44;4.70;;;3.47;;
55146;SDS011;41039;49.830;23.988;2024-01-27T00:43:10;3.60;;;2.80;;
55146;SDS011;41039;49.830;23.988;2024-01-27T00:45:35;4.87;;;3.60;;
55146;SDS011;41039;49.830;23.988;2024-01-27T00:48:00;5.77;;;3.33;;
55146;SDS011;41039;49.830;23.988;2024-01-27T00:50:26;3.90;;;3.03;;
55146;SDS011;41039;49.830;23.988;2024-01-27T00:52:51;3.90;;;2.78;;
55146;SDS011;41039;49.830;23.988;2024-01-27T00:55:17;3.30;;;2.70;;
55146;SDS011;41039;49.830;23.988;2024-01-27T00:57:45;3.85;;;2.95;;
55146;SDS011;41039;49.830;23.988;2024-01-27T01:00:10;4.63;;;3.40;;
55146;SDS011;41039;49.830;23.988;2024-01-27T01:02:36;3.65;;;2.47;;
55146;SDS011;41039;49.830;23.988;2024-01-27T01:05:02;4.00;;;2.85;;
55146;SDS011;41039;49.830;23.988;2024-01-27T01:07:29;4.55;;;3.00;;
55146;SDS011;41039;49.830;23.988;2024-01-27T01:09:54;3.72;;;3.05;;
55146;SDS011;41039;49.830;23.988;2024-01-27T01:12:19;3.93;;;3.03;;
55146;SDS011;41039;49.830;23.988;2024-01-27T01:14:44;4.60;;;3.10;;
55146;SDS011;41039;49.830;23.988;2024-01-27T01:17:09;3.40;;;2.53;;
55146;SDS011;41039;49.830;23.988;2024-01-27T01:19:38;3.70;;;3.05;;
55146;SDS011;41039;49.830;23.988;2024-01-27T01:22:04;3.88;;;2.92;;
55146;SDS011;41039;49.830;23.988;2024-01-27T01:24:29;3.85;;;2.90;;
55146;SDS011;41039;49.830;23.988;2024-01-27T01:26:55;4.38;;;3.28;;
55146;SDS011;41039;49.830;23.988;2024-01-27T01:29:20;4.00;;;2.77;;
55146;SDS011;41039;49.830;23.988;2024-01-27T01:31:45;4.30;;;2.93;;
55146;SDS011;41039;49.830;23.988;2024-01-27T01:34:10;3.75;;;2.95;;
55146;SDS011;41039;49.830;23.988;2024-01-27T01:36:36;3.23;;;2.53;;
55146;SDS011;41039;49.830;23.988;2024-01-27T01:39:02;5.80;;;3.00;;
55146;SDS011;41039;49.830;23.988;2024-01-27T01:41:27;5.03;;;2.90;;
55146;SDS011;41039;49.830;23.988;2024-01-27T01:43:53;4.00;;;2.90;;
55146;SDS011;41039;49.830;23.988;2024-01-27T01:46:18;4.80;;;2.90;;
55146;SDS011;41039;49.830;23.988;2024-01-27T01:48:43;3.57;;;2.77;;
55146;SDS011;41039;49.830;23.988;2024-01-27T01:51:09;3.90;;;2.97;;
55146;SDS011;41039;49.830;23.988;2024-01-27T01:53:34;4.00;;;2.87;;
55146;SDS011;41039;49.830;23.988;2024-01-27T01:55:59;4.22;;;3.28;;
55146;SDS011;41039;49.830;23.988;2024-01-27T01:58:26;3.63;;;2.58;;
55146;SDS011;41039;49.830;23.988;2024-01-27T02:00:58;3.72;;;2.50;;
55146;SDS011;41039;49.830;23.988;2024-01-27T02:03:24;3.83;;;2.65;;
55146;SDS011;41039;49.830;23.988;2024-01-27T02:05:49;3.57;;;2.67;;
55146;SDS011;41039;49.830;23.988;2024-01-27T02:08:14;4.18;;;2.85;;
55146;SDS011;41039;49.830;23.988;2024-01-27T02:10:39;4.73;;;3.20;;
55146;SDS011;41039;49.830;23.988;2024-01-27T02:15:43;3.97;;;2.80;;
55146;SDS011;41039;49.830;23.988;2024-01-27T02:18:08;3.80;;;3.10;;
55146;SDS011;41039;49.830;23.988;2024-01-27T02:20:34;3.40;;;2.50;;
55146;SDS011;41039;49.830;23.988;2024-01-27T02:22:59;3.80;;;2.80;;
55146;SDS011;41039;49.830;23.988;2024-01-27T02:25:28;3.60;;;3.00;;
55146;SDS011;41039;49.830;23.988;2024-01-27T02:27:53;4.88;;;2.80;;
55146;SDS011;41039;49.830;23.988;2024-01-27T02:30:19;3.80;;;2.67;;
55146;SDS011;41039;49.830;23.988;2024-01-27T02:32:44;3.60;;;2.97;;
55146;SDS011;41039;49.830;23.988;2024-01-27T02:35:09;3.47;;;2.60;;
55146;SDS011;41039;49.830;23.988;2024-01-27T02:37:34;3.30;;;2.53;;
55146;SDS011;41039;49.830;23.988;2024-01-27T02:40:00;3.70;;;2.70;;
55146;SDS011;41039;49.830;23.988;2024-01-27T02:42:25;3.60;;;2.77;;
55146;SDS011;41039;49.830;23.988;2024-01-27T02:44:50;3.45;;;2.65;;
55146;SDS011;41039;49.830;23.988;2024-01-27T02:47:15;3.70;;;2.53;;
55146;SDS011;41039;49.830;23.988;2024-01-27T02:49:41;3.20;;;2.47;;
55146;SDS011;41039;49.830;23.988;2024-01-27T02:52:06;3.63;;;2.80;;
55146;SDS011;41039;49.830;23.988;2024-01-27T02:54:31;3.53;;;2.63;;
55146;SDS011;41039;49.830;23.988;2024-01-27T02:56:56;3.33;;;2.30;;
55146;SDS011;41039;49.830;23.988;2024-01-27T02:59:22;3.28;;;2.50;;
55146;SDS011;41039;49.830;23.988;2024-01-27T03:01:47;3.60;;;2.60;;
55146;SDS011;41039;49.830;23.988;2024-01-27T03:04:12;3.20;;;2.60;;
55146;SDS011;41039;49.830;23.988;2024-01-27T03:06:37;3.93;;;3.00;;
55146;SDS011;41039;49.830;23.988;2024-01-27T03:09:03;3.33;;;2.35;;
55146;SDS011;41039;49.830;23.988;2024-01-27T03:11:28;3.33;;;2.50;;
55146;SDS011;41039;49.830;23.988;2024-01-27T03:13:54;3.53;;;2.57;;
55146;SDS011;41039;49.830;23.988;2024-01-27T03:16:19;3.33;;;2.60;;
55146;SDS011;41039;49.830;23.988;2024-01-27T03:18:45;3.03;;;2.35;;
55146;SDS011;41039;49.830;23.988;2024-01-27T03:21:10;3.45;;;2.35;;
55146;SDS011;41039;49.830;23.988;2024-01-27T03:23:35;3.67;;;2.57;;
55146;SDS011;41039;49.830;23.988;2024-01-27T03:26:02;3.22;;;2.53;;
55146;SDS011;41039;49.830;23.988;2024-01-27T03:28:27;3.17;;;2.20;;
55146;SDS011;41039;49.830;23.988;2024-01-27T03:30:52;2.80;;;2.23;;
55146;SDS011;41039;49.830;23.988;2024-01-27T03:33:17;3.27;;;2.47;;
55146;SDS011;41039;49.830;23.988;2024-01-27T03:35:43;3.42;;;2.50;;
55146;SDS011;41039;49.830;23.988;2024-01-27T03:38:08;3.30;;;2.33;;
55146;SDS011;41039;49.830;23.988;2024-01-27T03:40:33;2.85;;;2.15;;
55146;SDS011;41039;49.830;23.988;2024-01-27T03:42:59;3.28;;;2.38;;
55146;SDS011;41039;49.830;23.988;2024-01-27T03:45:24;3.03;;;2.30;;
55146;SDS011;41039;49.830;23.988;2024-01-27T03:47:49;3.15;;;2.35;;
55146;SDS011;41039;49.830;23.988;2024-01-27T03:50:14;4.18;;;2.33;;
55146;SDS011;41039;49.830;23.988;2024-01-27T03:52:40;3.67;;;2.50;;
55146;SDS011;41039;49.830;23.988;2024-01-27T03:55:06;3.42;;;2.45;;
55146;SDS011;41039;49.830;23.988;2024-01-27T03:57:31;2.55;;;1.70;;
55146;SDS011;41039;49.830;23.988;2024-01-27T03:59:56;3.37;;;2.43;;
55146;SDS011;41039;49.830;23.988;2024-01-27T04:02:22;2.60;;;2.20;;
55146;SDS011;41039;49.830;23.988;2024-01-27T04:04:47;3.07;;;2.20;;
55146;SDS011;41039;49.830;23.988;2024-01-27T04:07:12;3.30;;;2.00;;
55146;SDS011;41039;49.830;23.988;2024-01-27T04:09:37;3.10;;;2.00;;
55146;SDS011;41039;49.830;23.988;2024-01-27T04:12:03;3.20;;;2.00;;
55146;SDS011;41039;49.830;23.988;2024-01-27T04:14:28;2.88;;;1.98;;
55146;SDS011;41039;49.830;23.988;2024-01-27T04:16:53;2.53;;;1.87;;
55146;SDS011;41039;49.830;23.988;2024-01-27T04:19:18;3.17;;;2.30;;
55146;SDS011;41039;49.830;23.988;2024-01-27T04:21:44;2.53;;;1.80;;
55146;SDS011;41039;49.830;23.988;2024-01-27T04:24:09;2.92;;;1.95;;
55146;SDS011;41039;49.830;23.988;2024-01-27T04:26:34;2.88;;;1.90;;
55146;SDS011;41039;49.830;23.988;2024-01-27T04:28:59;2.30;;;1.70;;
55146;SDS011;41039;49.830;23.988;2024-01-27T04:31:25;2.40;;;1.80;;
55146;SDS011;41039;49.830;23.988;2024-01-27T04:33:50;2.90;;;1.90;;
55146;SDS011;41039;49.830;23.988;2024-01-27T04:36:24;2.53;;;1.63;;
55146;SDS011;41039;49.830;23.988;2024-01-27T04:38:49;3.08;;;2.05;;
55146;SDS011;41039;49.830;23.988;2024-01-27T04:41:14;2.43;;;1.70;;
55146;SDS011;41039;49.830;23.988;2024-01-27T04:43:41;2.83;;;1.77;;
55146;SDS011;41039;49.830;23.988;2024-01-27T04:46:06;3.10;;;1.90;;
55146;SDS011;41039;49.830;23.988;2024-01-27T04:48:32;2.53;;;1.70;;
55146;SDS011;41039;49.830;23.988;2024-01-27T04:50:57;2.45;;;1.77;;
55146;SDS011;41039;49.830;23.988;2024-01-27T04:53:22;2.67;;;1.73;;
55146;SDS011;41039;49.830;23.988;2024-01-27T04:55:48;3.27;;;2.10;;
55146;SDS011;41039;49.830;23.988;2024-01-27T04:58:13;2.40;;;1.60;;
55146;SDS011;41039;49.830;23.988;2024-01-27T05:00:39;2.92;;;1.48;;
55146;SDS011;41039;49.830;23.988;2024-01-27T05:03:04;2.10;;;1.60;;
55146;SDS011;41039;49.830;23.988;2024-01-27T05:05:32;2.47;;;1.73;;
55146;SDS011;41039;49.830;23.988;2024-01-27T05:07:57;2.10;;;1.45;;
55146;SDS011;41039;49.830;23.988;2024-01-27T05:10:23;2.47;;;1.83;;
55146;SDS011;41039;49.830;23.988;2024-01-27T05:12:50;2.85;;;1.60;;
55146;SDS011;41039;49.830;23.988;2024-01-27T05:15:15;2.60;;;1.57;;
55146;SDS011;41039;49.830;23.988;2024-01-27T05:17:40;2.20;;;1.40;;
55146;SDS011;41039;49.830;23.988;2024-01-27T05:20:06;2.83;;;1.70;;
55146;SDS011;41039;49.830;23.988;2024-01-27T05:22:32;2.25;;;1.40;;
55146;SDS011;41039;49.830;23.988;2024-01-27T05:24:57;2.55;;;1.60;;
55146;SDS011;41039;49.830;23.988;2024-01-27T05:27:22;2.35;;;1.40;;
55146;SDS011;41039;49.830;23.988;2024-01-27T05:29:48;2.38;;;1.55;;
55146;SDS011;41039;49.830;23.988;2024-01-27T05:32:13;2.47;;;1.43;;
55146;SDS011;41039;49.830;23.988;2024-01-27T05:34:38;3.77;;;1.70;;
55146;SDS011;41039;49.830;23.988;2024-01-27T05:37:04;2.33;;;1.67;;
55146;SDS011;41039;49.830;23.988;2024-01-27T05:39:29;2.13;;;1.53;;
55146;SDS011;41039;49.830;23.988;2024-01-27T05:41:54;2.38;;;1.33;;
55146;SDS011;41039;49.830;23.988;2024-01-27T05:44:20;2.28;;;1.48;;
55146;SDS011;41039;49.830;23.988;2024-01-27T05:46:45;2.67;;;1.57;;
55146;SDS011;41039;49.830;23.988;2024-01-27T05:49:10;2.07;;;1.30;;
55146;SDS011;41039;49.830;23.988;2024-01-27T05:51:35;2.53;;;1.63;;
55146;SDS011;41039;49.830;23.988;2024-01-27T05:54:00;2.77;;;1.67;;
55146;SDS011;41039;49.830;23.988;2024-01-27T05:56:26;2.10;;;1.30;;
55146;SDS011;41039;49.830;23.988;2024-01-27T05:58:51;2.30;;;1.37;;
55146;SDS011;41039;49.830;23.988;2024-01-27T06:01:19;2.97;;;1.35;;
55146;SDS011;41039;49.830;23.988;2024-01-27T06:03:45;2.10;;;1.38;;
55146;SDS011;41039;49.830;23.988;2024-01-27T06:06:10;1.98;;;1.25;;
55146;SDS011;41039;49.830;23.988;2024-01-27T06:08:35;2.15;;;1.20;;
55146;SDS011;41039;49.830;23.988;2024-01-27T06:11:01;2.03;;;1.38;;
55146;SDS011;41039;49.830;23.988;2024-01-27T06:13:26;1.98;;;1.20;;
55146;SDS011;41039;49.830;23.988;2024-01-27T06:15:51;2.03;;;1.27;;
55146;SDS011;41039;49.830;23.988;2024-01-27T06:18:16;2.00;;;1.30;;
55146;SDS011;41039;49.830;23.988;2024-01-27T06:20:42;1.90;;;1.27;;
55146;SDS011;41039;49.830;23.988;2024-01-27T06:23:07;2.65;;;1.35;;
55146;SDS011;41039;49.830;23.988;2024-01-27T06:25:32;2.20;;;1.17;;
55146;SDS011;41039;49.830;23.988;2024-01-27T06:27:58;1.77;;;1.23;;
55146;SDS011;41039;49.830;23.988;2024-01-27T06:30:23;2.23;;;1.37;;
55146;SDS011;41039;49.830;23.988;2024-01-27T06:32:48;2.40;;;1.42;;
55146;SDS011;41039;49.830;23.988;2024-01-27T06:35:13;2.65;;;1.70;;
55146;SDS011;41039;49.830;23.988;2024-01-27T06:37:38;1.92;;;1.10;;
55146;SDS011;41039;49.830;23.988;2024-01-27T06:40:04;2.20;;;1.30;;
55146;SDS011;41039;49.830;23.988;2024-01-27T06:42:29;2.60;;;1.17;;
55146;SDS011;41039;49.830;23.988;2024-01-27T06:44:54;1.95;;;1.20;;
55146;SDS011;41039;49.830;23.988;2024-01-27T06:47:20;2.20;;;1.27;;
55146;SDS011;41039;49.830;23.988;2024-01-27T06:49:45;2.60;;;1.37;;
55146;SDS011;41039;49.830;23.988;2024-01-27T06:52:10;2.43;;;1.40;;
55146;SDS011;41039;49.830;23.988;2024-01-27T06:54:37;2.53;;;1.35;;
55146;SDS011;41039;49.830;23.988;2024-01-27T06:57:06;2.30;;;1.30;;
55146;SDS011;41039;49.830;23.988;2024-01-27T06:59:31;2.07;;;1.20;;
55146;SDS011;41039;49.830;23.988;2024-01-27T07:01:56;1.88;;;1.10;;
55146;SDS011;41039;49.830;23.988;2024-01-27T07:04:22;2.07;;;1.23;;
55146;SDS011;41039;49.830;23.988;2024-01-27T07:06:48;3.50;;;1.60;;
55146;SDS011;41039;49.830;23.988;2024-01-27T07:09:13;2.50;;;1.50;;
55146;SDS011;41039;49.830;23.988;2024-01-27T07:11:38;3.63;;;1.50;;
55146;SDS011;41039;49.830;23.988;2024-01-27T07:14:04;2.43;;;1.40;;
55146;SDS011;41039;49.830;23.988;2024-01-27T07:16:29;3.33;;;1.60;;
55146;SDS011;41039;49.830;23.988;2024-01-27T07:18:55;2.20;;;1.50;;
55146;SDS011;41039;49.830;23.988;2024-01-27T07:21:20;2.45;;;1.30;;
55146;SDS011;41039;49.830;23.988;2024-01-27T07:23:45;2.83;;;1.30;;
55146;SDS011;41039;49.830;23.988;2024-01-27T07:26:10;2.70;;;1.40;;
55146;SDS011;41039;49.830;23.988;2024-01-27T07:28:36;2.08;;;1.10;;
55146;SDS011;41039;49.830;23.988;2024-01-27T07:31:01;2.70;;;1.38;;
55146;SDS011;41039;49.830;23.988;2024-01-27T07:33:26;2.55;;;1.55;;
55146;SDS011;41039;49.830;23.988;2024-01-27T07:35:52;2.08;;;1.30;;
55146;SDS011;41039;49.830;23.988;2024-01-27T07:38:17;2.87;;;1.40;;
55146;SDS011;41039;49.830;23.988;2024-01-27T07:40:42;2.47;;;1.30;;
55146;SDS011;41039;49.830;23.988;2024-01-27T07:43:07;3.40;;;1.43;;
55146;SDS011;41039;49.830;23.988;2024-01-27T07:45:33;3.23;;;1.50;;
55146;SDS011;41039;49.830;23.988;2024-01-27T07:47:58;2.20;;;1.30;;
55146;SDS011;41039;49.830;23.988;2024-01-27T07:50:23;2.55;;;1.50;;
55146;SDS011;41039;49.830;23.988;2024-01-27T07:52:49;2.03;;;1.30;;
55146;SDS011;41039;49.830;23.988;2024-01-27T07:55:14;2.40;;;1.37;;
55146;SDS011;41039;49.830;23.988;2024-01-27T07:57:39;1.77;;;1.10;;
55146;SDS011;41039;49.830;23.988;2024-01-27T08:00:05;2.83;;;1.37;;
55146;SDS011;41039;49.830;23.988;2024-01-27T08:02:31;2.90;;;1.70;;
55146;SDS011;41039;49.830;23.988;2024-01-27T08:04:56;2.90;;;1.50;;
55146;SDS011;41039;49.830;23.988;2024-01-27T08:07:22;4.10;;;1.67;;
55146;SDS011;41039;49.830;23.988;2024-01-27T08:09:47;3.27;;;1.50;;
55146;SDS011;41039;49.830;23.988;2024-01-27T08:12:13;3.00;;;1.90;;
55146;SDS011;41039;49.830;23.988;2024-01-27T08:14:38;2.83;;;1.45;;
55146;SDS011;41039;49.830;23.988;2024-01-27T08:17:04;2.83;;;1.65;;
55146;SDS011;41039;49.830;23.988;2024-01-27T08:19:29;2.83;;;1.60;;
55146;SDS011;41039;49.830;23.988;2024-01-27T08:21:55;2.28;;;1.50;;
55146;SDS011;41039;49.830;23.988;2024-01-27T08:24:20;2.80;;;1.33;;
55146;SDS011;41039;49.830;23.988;2024-01-27T08:26:47;2.95;;;1.50;;
55146;SDS011;41039;49.830;23.988;2024-01-27T08:29:13;2.97;;;1.45;;
55146;SDS011;41039;49.830;23.988;2024-01-27T08:31:38;2.70;;;1.63;;
55146;SDS011;41039;49.830;23.988;2024-01-27T08:34:03;4.30;;;1.50;;
55146;SDS011;41039;49.830;23.988;2024-01-27T08:36:29;2.38;;;1.20;;
55146;SDS011;41039;49.830;23.988;2024-01-27T08:38:54;8.20;;;1.70;;
55146;SDS011;41039;49.830;23.988;2024-01-27T08:41:19;2.83;;;1.63;;
55146;SDS011;41039;49.830;23.988;2024-01-27T08:43:45;2.50;;;1.47;;
55146;SDS011;41039;49.830;23.988;2024-01-27T08:46:10;3.83;;;1.87;;
55146;SDS011;41039;49.830;23.988;2024-01-27T08:48:37;3.33;;;1.95;;
55146;SDS011;41039;49.830;23.988;2024-01-27T08:51:02;3.88;;;2.00;;
55146;SDS011;41039;49.830;23.988;2024-01-27T08:53:28;4.07;;;2.05;;
55146;SDS011;41039;49.830;23.988;2024-01-27T08:55:53;4.50;;;2.70;;
55146;SDS011;41039;49.830;23.988;2024-01-27T08:58:18;4.43;;;2.03;;
55146;SDS011;41039;49.830;23.988;2024-01-27T09:00:43;4.55;;;2.45;;
55146;SDS011;41039;49.830;23.988;2024-01-27T09:03:09;4.33;;;1.97;;
55146;SDS011;41039;49.830;23.988;2024-01-27T09:05:34;6.70;;;2.93;;
55146;SDS011;41039;49.830;23.988;2024-01-27T09:07:59;4.07;;;2.50;;
55146;SDS011;41039;49.830;23.988;2024-01-27T09:10:24;4.77;;;2.63;;
55146;SDS011;41039;49.830;23.988;2024-01-27T09:12:49;4.63;;;2.55;;
55146;SDS011;41039;49.830;23.988;2024-01-27T09:15:15;5.28;;;2.58;;
55146;SDS011;41039;49.830;23.988;2024-01-27T09:17:40;6.47;;;3.13;;
55146;SDS011;41039;49.830;23.988;2024-01-27T09:20:08;4.10;;;2.53;;
55146;SDS011;41039;49.830;23.988;2024-01-27T09:22:33;5.70;;;3.03;;
55146;SDS011;41039;49.830;23.988;2024-01-27T09:24:58;4.90;;;2.50;;
55146;SDS011;41039;49.830;23.988;2024-01-27T09:27:24;4.30;;;2.40;;
55146;SDS011;41039;49.830;23.988;2024-01-27T09:29:49;4.65;;;2.63;;
55146;SDS011;41039;49.830;23.988;2024-01-27T09:32:14;6.17;;;2.47;;
55146;SDS011;41039;49.830;23.988;2024-01-27T09:34:39;5.57;;;2.43;;
55146;SDS011;41039;49.830;23.988;2024-01-27T09:37:05;6.03;;;2.67;;
55146;SDS011;41039;49.830;23.988;2024-01-27T09:39:30;5.10;;;2.40;;
55146;SDS011;41039;49.830;23.988;2024-01-27T09:41:55;7.17;;;2.80;;
55146;SDS011;41039;49.830;23.988;2024-01-27T09:44:21;4.40;;;2.60;;
55146;SDS011;41039;49.830;23.988;2024-01-27T09:46:47;5.45;;;2.45;;
55146;SDS011;41039;49.830;23.988;2024-01-27T09:49:14;7.45;;;2.65;;
55146;SDS011;41039;49.830;23.988;2024-01-27T09:51:41;5.82;;;2.60;;
55146;SDS011;41039;49.830;23.988;2024-01-27T09:54:06;3.85;;;2.13;;
55146;SDS011;41039;49.830;23.988;2024-01-27T09:56:31;4.25;;;2.00;;
55146;SDS011;41039;49.830;23.988;2024-01-27T09:58:57;4.35;;;2.40;;
55146;SDS011;41039;49.830;23.988;2024-01-27T10:01:24;5.13;;;2.25;;
55146;SDS011;41039;49.830;23.988;2024-01-27T10:03:49;5.13;;;2.70;;
55146;SDS011;41039;49.830;23.988;2024-01-27T10:06:14;2.80;;;1.47;;
55146;SDS011;41039;49.830;23.988;2024-01-27T10:08:40;4.53;;;2.63;;
55146;SDS011;41039;49.830;23.988;2024-01-27T10:11:08;4.35;;;2.28;;
55146;SDS011;41039;49.830;23.988;2024-01-27T10:13:34;4.03;;;1.98;;
55146;SDS011;41039;49.830;23.988;2024-01-27T10:16:03;3.65;;;2.20;;
55146;SDS011;41039;49.830;23.988;2024-01-27T10:18:29;4.25;;;2.13;;
55146;SDS011;41039;49.830;23.988;2024-01-27T10:20:54;3.70;;;2.20;;
55146;SDS011;41039;49.830;23.988;2024-01-27T10:23:19;3.63;;;2.08;;
55146;SDS011;41039;49.830;23.988;2024-01-27T10:25:44;4.30;;;2.40;;
55146;SDS011;41039;49.830;23.988;2024-01-27T10:28:10;3.75;;;1.92;;
55146;SDS011;41039;49.830;23.988;2024-01-27T10:30:35;3.58;;;1.85;;
55146;SDS011;41039;49.830;23.988;2024-01-27T10:33:00;3.67;;;1.95;;
55146;SDS011;41039;49.830;23.988;2024-01-27T10:35:26;4.22;;;1.95;;
55146;SDS011;41039;49.830;23.988;2024-01-27T10:37:54;7.80;;;2.83;;
55146;SDS011;41039;49.830;23.988;2024-01-27T10:40:20;6.82;;;2.50;;
55146;SDS011;41039;49.830;23.988;2024-01-27T10:42:46;3.83;;;2.00;;
55146;SDS011;41039;49.830;23.988;2024-01-27T10:45:12;3.55;;;1.90;;
55146;SDS011;41039;49.830;23.988;2024-01-27T10:47:37;4.53;;;2.17;;
55146;SDS011;41039;49.830;23.988;2024-01-27T10:50:03;4.05;;;2.35;;
55146;SDS011;41039;49.830;23.988;2024-01-27T10:52:32;3.97;;;1.88;;
55146;SDS011;41039;49.830;23.988;2024-01-27T10:54:58;4.18;;;2.03;;
55146;SDS011;41039;49.830;23.988;2024-01-27T10:57:24;4.75;;;2.10;;
55146;SDS011;41039;49.830;23.988;2024-01-27T10:59:51;5.32;;;2.40;;
55146;SDS011;41039;49.830;23.988;2024-01-27T11:02:17;5.28;;;2.08;;
55146;SDS011;41039;49.830;23.988;2024-01-27T11:04:43;3.92;;;2.13;;
55146;SDS011;41039;49.830;23.988;2024-01-27T11:07:09;4.53;;;2.00;;
55146;SDS011;41039;49.830;23.988;2024-01-27T11:09:35;4.72;;;2.40;;
55146;SDS011;41039;49.830;23.988;2024-01-27T11:12:00;3.38;;;2.15;;
55146;SDS011;41039;49.830;23.988;2024-01-27T11:14:26;6.35;;;2.78;;
55146;SDS011;41039;49.830;23.988;2024-01-27T11:16:55;4.05;;;2.20;;
55146;SDS011;41039;49.830;23.988;2024-01-27T11:19:21;4.47;;;2.50;;
55146;SDS011;41039;49.830;23.988;2024-01-27T11:21:46;4.90;;;2.30;;
55146;SDS011;41039;49.830;23.988;2024-01-27T11:24:16;5.63;;;2.63;;
55146;SDS011;41039;49.830;23.988;2024-01-27T11:26:41;4.38;;;2.70;;
55146;SDS011;41039;49.830;23.988;2024-01-27T11:29:09;5.28;;;3.08;;
55146;SDS011;41039;49.830;23.988;2024-01-27T11:31:43;4.60;;;2.65;;
55146;SDS011;41039;49.830;23.988;2024-01-27T11:34:10;4.15;;;2.40;;
55146;SDS011;41039;49.830;23.988;2024-01-27T11:36:37;5.13;;;3.17;;
55146;SDS011;41039;49.830;23.988;2024-01-27T11:39:02;5.60;;;2.67;;
55146;SDS011;41039;49.830;23.988;2024-01-27T11:41:29;5.00;;;2.38;;
55146;SDS011;41039;49.830;23.988;2024-01-27T11:43:54;5.85;;;2.60;;
55146;SDS011;41039;49.830;23.988;2024-01-27T11:46:20;3.40;;;2.30;;
55146;SDS011;41039;49.830;23.988;2024-01-27T11:48:45;4.43;;;2.30;;
55146;SDS011;41039;49.830;23.988;2024-01-27T11:51:11;4.47;;;2.38;;
55146;SDS011;41039;49.830;23.988;2024-01-27T11:53:36;3.50;;;2.15;;
55146;SDS011;41039;49.830;23.988;2024-01-27T11:56:03;5.05;;;2.70;;
55146;SDS011;41039;49.830;23.988;2024-01-27T11:58:28;4.57;;;2.53;;
55146;SDS011;41039;49.830;23.988;2024-01-27T12:00:55;4.75;;;2.17;;
55146;SDS011;41039;49.830;23.988;2024-01-27T12:03:20;4.40;;;2.30;;
55146;SDS011;41039;49.830;23.988;2024-01-27T12:05:46;3.97;;;2.20;;
55146;SDS011;41039;49.830;23.988;2024-01-27T12:08:11;4.32;;;2.20;;
55146;SDS011;41039;49.830;23.988;2024-01-27T12:10:37;4.83;;;2.10;;
55146;SDS011;41039;49.830;23.988;2024-01-27T12:13:02;3.53;;;2.05;;
55146;SDS011;41039;49.830;23.988;2024-01-27T12:15:27;4.28;;;2.50;;
55146;SDS011;41039;49.830;23.988;2024-01-27T12:17:53;4.00;;;2.30;;
55146;SDS011;41039;49.830;23.988;2024-01-27T12:20:18;4.53;;;2.10;;
55146;SDS011;41039;49.830;23.988;2024-01-27T12:22:44;4.32;;;2.35;;
55146;SDS011;41039;49.830;23.988;2024-01-27T12:25:10;4.15;;;2.15;;
55146;SDS011;41039;49.830;23.988;2024-01-27T12:27:35;3.53;;;2.10;;
55146;SDS011;41039;49.830;23.988;2024-01-27T12:30:01;3.57;;;2.13;;
55146;SDS011;41039;49.830;23.988;2024-01-27T12:32:26;3.72;;;2.15;;
55146;SDS011;41039;49.830;23.988;2024-01-27T12:34:52;5.07;;;2.25;;
55146;SDS011;41039;49.830;23.988;2024-01-27T12:37:17;4.07;;;2.40;;
55146;SDS011;41039;49.830;23.988;2024-01-27T12:39:43;3.53;;;2.07;;
55146;SDS011;41039;49.830;23.988;2024-01-27T12:42:09;3.80;;;2.17;;
55146;SDS011;41039;49.830;23.988;2024-01-27T12:44:34;5.30;;;2.50;;
55146;SDS011;41039;49.830;23.988;2024-01-27T12:46:59;4.27;;;2.40;;
55146;SDS011;41039;49.830;23.988;2024-01-27T12:49:25;3.90;;;2.13;;
55146;SDS011;41039;49.830;23.988;2024-01-27T12:51:51;3.72;;;2.22;;
55146;SDS011;41039;49.830;23.988;2024-01-27T12:54:17;4.60;;;2.15;;
55146;SDS011;41039;49.830;23.988;2024-01-27T12:56:42;4.53;;;2.40;;
55146;SDS011;41039;49.830;23.988;2024-01-27T12:59:07;4.85;;;1.95;;
55146;SDS011;41039;49.830;23.988;2024-01-27T13:01:33;3.80;;;2.03;;
55146;SDS011;41039;49.830;23.988;2024-01-27T13:03:58;3.42;;;1.98;;
55146;SDS011;41039;49.830;23.988;2024-01-27T13:06:23;4.00;;;2.27;;
55146;SDS011;41039;49.830;23.988;2024-01-27T13:08:49;4.50;;;2.20;;
55146;SDS011;41039;49.830;23.988;2024-01-27T13:11:14;5.15;;;2.30;;
55146;SDS011;41039;49.830;23.988;2024-01-27T13:13:40;5.63;;;2.50;;
55146;SDS011;41039;49.830;23.988;2024-01-27T13:16:05;3.42;;;2.10;;
55146;SDS011;41039;49.830;23.988;2024-01-27T13:18:31;4.68;;;2.35;;
55146;SDS011;41039;49.830;23.988;2024-01-27T13:20:56;4.10;;;2.40;;
55146;SDS011;41039;49.830;23.988;2024-01-27T13:23:21;4.70;;;2.37;;
55146;SDS011;41039;49.830;23.988;2024-01-27T13:25:47;4.05;;;2.50;;
55146;SDS011;41039;49.830;23.988;2024-01-27T13:28:12;5.28;;;2.50;;
55146;SDS011;41039;49.830;23.988;2024-01-27T13:30:39;4.05;;;2.65;;
55146;SDS011;41039;49.830;23.988;2024-01-27T13:33:04;4.60;;;2.60;;
55146;SDS011;41039;49.830;23.988;2024-01-27T13:35:29;4.53;;;2.80;;
55146;SDS011;41039;49.830;23.988;2024-01-27T13:37:54;5.40;;;2.70;;
55146;SDS011;41039;49.830;23.988;2024-01-27T13:40:20;3.58;;;2.35;;
55146;SDS011;41039;49.830;23.988;2024-01-27T13:42:45;3.95;;;2.38;;
55146;SDS011;41039;49.830;23.988;2024-01-27T13:45:10;4.73;;;2.73;;
55146;SDS011;41039;49.830;23.988;2024-01-27T13:47:36;4.68;;;2.83;;
55146;SDS011;41039;49.830;23.988;2024-01-27T13:50:01;4.03;;;2.30;;
55146;SDS011;41039;49.830;23.988;2024-01-27T13:52:27;5.03;;;2.45;;
55146;SDS011;41039;49.830;23.988;2024-01-27T13:54:54;3.85;;;2.40;;
55146;SDS011;41039;49.830;23.988;2024-01-27T13:57:19;4.77;;;2.60;;
55146;SDS011;41039;49.830;23.988;2024-01-27T13:59:44;5.67;;;3.13;;
55146;SDS011;41039;49.830;23.988;2024-01-27T14:02:10;3.70;;;2.20;;
55146;SDS011;41039;49.830;23.988;2024-01-27T14:04:35;5.78;;;2.70;;
55146;SDS011;41039;49.830;23.988;2024-01-27T14:07:00;3.97;;;2.63;;
55146;SDS011;41039;49.830;23.988;2024-01-27T14:09:31;4.25;;;2.60;;
55146;SDS011;41039;49.830;23.988;2024-01-27T14:11:57;4.30;;;2.30;;
55146;SDS011;41039;49.830;23.988;2024-01-27T14:14:22;4.72;;;2.67;;
55146;SDS011;41039;49.830;23.988;2024-01-27T14:16:47;4.33;;;2.50;;
55146;SDS011;41039;49.830;23.988;2024-01-27T14:19:12;4.40;;;2.67;;
55146;SDS011;41039;49.830;23.988;2024-01-27T14:21:38;4.15;;;2.60;;
55146;SDS011;41039;49.830;23.988;2024-01-27T14:24:03;4.40;;;2.50;;
55146;SDS011;41039;49.830;23.988;2024-01-27T14:26:31;4.05;;;2.45;;